Time;durP1;ratioP1;P1;durP2;ratioP2;P2;SDS_P1;SDS_P2;PMS_P1;PMS_P2;Temp;Humidity;BMP_temperature;BMP_pressure;BME280_temperature;BME280_humidity;BME280_pressure;Samples;Min_cycle;Max_cycle;Signal;HPM_P1;HPM_P2
2024/04/16 00:00:03;;;;;;;8.43;1.52;;;;;;;7.66;nan;100140.41;5278125;27;19998;-93
2024/04/16 00:02:28;;;;;;;15.02;2.25;;;;;;;7.72;nan;100141.84;5277535;27;20009;-93
2024/04/16 00:04:54;;;;;;;10.07;2.05;;;;;;;7.66;nan;100125.00;5279151;27;20487;-93
2024/04/16 00:07:19;;;;;;;8.40;1.75;;;;;;;7.74;nan;100126.38;5277452;27;20006;-93
2024/04/16 00:09:45;;;;;;;8.95;1.65;;;;;;;7.75;nan;100128.00;5277858;27;20464;-93
2024/04/16 00:12:10;;;;;;;8.23;1.80;;;;;;;7.80;nan;100124.28;5277696;27;20056;-92
2024/04/16 00:14:36;;;;;;;9.13;1.65;;;;;;;7.82;nan;100130.19;5277762;27;20488;-92
2024/04/16 00:17:01;;;;;;;16.70;2.50;;;;;;;7.77;nan;100128.78;5276923;27;20010;-92
2024/04/16 00:19:27;;;;;;;8.73;1.92;;;;;;;7.72;nan;100134.97;5277681;27;20006;-92
2024/04/16 00:21:52;;;;;;;6.93;1.88;;;;;;;7.67;nan;100131.78;5277494;27;19998;-94
2024/04/16 00:24:19;;;;;;;10.55;1.80;;;;;;;7.70;nan;100120.53;5277235;27;20339;-92
2024/04/16 00:26:44;;;;;;;7.53;1.65;;;;;;;7.60;nan;100119.34;5277371;27;20022;-93
2024/04/16 00:29:09;;;;;;;11.50;2.22;;;;;;;7.67;nan;100116.38;5277708;27;19998;-93
2024/04/16 00:31:35;;;;;;;11.52;1.55;;;;;;;7.68;nan;100112.06;5277482;27;20072;-92
2024/04/16 00:34:00;;;;;;;12.10;2.13;;;;;;;7.64;nan;100126.00;5279348;27;20334;-92
2024/04/16 00:36:25;;;;;;;8.40;1.73;;;;;;;7.69;nan;100113.75;5277789;27;20014;-94
2024/04/16 00:38:51;;;;;;;13.20;1.92;;;;;;;7.61;nan;100108.19;5278995;27;20339;-93
2024/04/16 00:41:16;;;;;;;11.18;1.95;;;;;;;7.61;nan;100121.03;5277158;27;19994;-93
2024/04/16 00:43:42;;;;;;;11.60;1.67;;;;;;;7.52;nan;100112.03;5277473;27;20005;-93
2024/04/16 00:46:07;;;;;;;12.10;2.03;;;;;;;7.49;nan;100125.03;5277196;27;20376;-91
2024/04/16 00:48:32;;;;;;;9.15;2.03;;;;;;;7.53;nan;100113.69;5276478;27;20026;-93
2024/04/16 00:50:59;;;;;;;11.32;2.00;;;;;;;7.54;nan;100119.66;5276981;27;20017;-92
2024/04/16 00:53:27;;;;;;;15.52;2.67;;;;;;;7.50;nan;100111.28;5277086;27;20492;-92
2024/04/16 00:55:55;;;;;;;7.78;1.85;;;;;;;7.42;nan;100119.34;5276369;27;19998;-93
2024/04/16 00:58:21;;;;;;;14.73;2.10;;;;;;;7.31;nan;100116.47;5278340;27;20013;-91
2024/04/16 01:00:47;;;;;;;14.75;2.60;;;;;;;7.26;nan;100116.69;5276869;27;20457;-91
2024/04/16 01:03:12;;;;;;;10.38;2.10;;;;;;;7.35;nan;100119.75;5277523;27;20002;-91
2024/04/16 01:05:40;;;;;;;11.93;2.55;;;;;;;7.41;nan;100127.97;5276841;27;20307;-92
2024/04/16 01:08:08;;;;;;;9.10;1.50;;;;;;;7.33;nan;100124.13;5276973;27;20001;-92
2024/04/16 01:10:38;;;;;;;10.30;1.95;;;;;;;7.31;nan;100128.50;5277262;27;20023;-91
2024/04/16 01:13:04;;;;;;;15.10;2.20;;;;;;;7.24;nan;100131.38;5277298;27;20113;-93
2024/04/16 01:15:29;;;;;;;14.65;2.47;;;;;;;7.24;nan;100131.38;5277182;27;20352;-93
2024/04/16 01:17:54;;;;;;;13.75;2.15;;;;;;;7.17;nan;100126.56;5276724;27;19994;-94
2024/04/16 01:20:20;;;;;;;9.90;1.98;;;;;;;7.17;nan;100119.75;5276787;27;20441;-93
2024/04/16 01:22:52;;;;;;;12.80;3.40;;;;;;;7.14;nan;100131.88;5277112;27;20014;-93
2024/04/16 01:25:17;;;;;;;;;;;;;;;7.07;nan;100128.75;5277656;27;20019;-93
2024/04/16 01:27:43;;;;;;;15.55;3.20;;;;;;;7.11;nan;100122.59;5277207;27;20353;-93
2024/04/16 01:30:08;;;;;;;9.50;2.38;;;;;;;7.15;nan;100136.13;5278547;27;20011;-93
2024/04/16 01:32:33;;;;;;;9.98;1.83;;;;;;;7.21;nan;100133.25;5276742;27;19999;-94
2024/04/16 01:34:59;;;;;;;9.05;1.80;;;;;;;7.22;nan;100129.78;5276784;27;20453;-93
2024/04/16 01:37:24;;;;;;;13.02;1.88;;;;;;;7.40;nan;100135.75;5276205;27;19999;-92
2024/04/16 01:39:51;;;;;;;15.90;2.22;;;;;;;7.37;nan;100133.34;5278604;27;20049;-93
2024/04/16 01:42:16;;;;;;;9.40;1.85;;;;;;;7.38;nan;100130.69;5277176;27;20010;-93
2024/04/16 01:44:45;;;;;;;13.43;2.72;;;;;;;7.41;nan;100134.81;5278369;27;20030;-93
2024/04/16 01:47:11;;;;;;;14.07;2.08;;;;;;;7.43;nan;100133.03;5276445;27;20086;-94
2024/04/16 01:49:36;;;;;;;8.77;2.15;;;;;;;7.46;nan;100138.00;5276732;27;20002;-91
2024/04/16 01:52:02;;;;;;;15.15;2.65;;;;;;;7.52;nan;100139.44;5278290;27;20004;-91
2024/04/16 01:54:28;;;;;;;10.48;1.80;;;;;;;7.54;nan;100132.50;5275239;27;20351;-91
2024/04/16 01:56:53;;;;;;;10.88;2.88;;;;;;;7.53;nan;100126.50;5276495;27;20488;-92
2024/04/16 01:59:18;;;;;;;18.38;3.83;;;;;;;7.43;nan;100133.03;5276179;27;20022;-91
2024/04/16 02:01:44;;;;;;;17.70;3.60;;;;;;;7.38;nan;100133.25;5276532;27;20002;-94
2024/04/16 02:04:09;;;;;;;14.70;2.83;;;;;;;7.51;nan;100138.63;5276335;27;20002;-93
2024/04/16 02:06:35;;;;;;;10.43;2.15;;;;;;;7.43;nan;100140.72;5277745;27;20002;-93
2024/04/16 02:09:00;;;;;;;9.77;2.33;;;;;;;7.47;nan;100147.38;5278012;27;20013;-92
2024/04/16 02:11:26;;;;;;;21.30;2.83;;;;;;;7.43;nan;100143.28;5277436;27;20049;-92
2024/04/16 02:13:53;;;;;;;14.05;1.67;;;;;;;7.49;nan;100143.00;5277501;27;19995;-91
2024/04/16 02:16:18;;;;;;;11.60;2.15;;;;;;;7.52;nan;100147.97;5275392;27;20465;-92
2024/04/16 02:18:44;;;;;;;10.23;1.55;;;;;;;7.48;nan;100149.84;5275790;27;20005;-91
2024/04/16 02:21:09;;;;;;;12.05;2.10;;;;;;;7.44;nan;100139.84;5275517;27;20047;-91
2024/04/16 02:23:34;;;;;;;10.50;2.15;;;;;;;7.47;nan;100143.06;5275865;27;20009;-91
2024/04/16 02:26:00;;;;;;;12.65;2.22;;;;;;;7.49;nan;100158.41;5275655;27;20010;-91
2024/04/16 02:28:25;;;;;;;9.40;2.00;;;;;;;7.49;nan;100150.72;5275325;27;20076;-91
2024/04/16 02:30:51;;;;;;;14.75;3.28;;;;;;;7.59;nan;100151.09;5275968;27;20005;-93
2024/04/16 02:33:19;;;;;;;14.02;2.75;;;;;;;7.54;nan;100151.31;5275840;27;20426;-92
2024/04/16 02:35:44;;;;;;;11.15;2.45;;;;;;;7.52;nan;100158.25;5275646;27;19998;-93
2024/04/16 02:38:09;;;;;;;10.00;2.33;;;;;;;7.42;nan;100157.88;5275492;27;20061;-92
2024/04/16 02:40:35;;;;;;;14.82;2.60;;;;;;;7.44;nan;100168.91;5277132;27;20073;-92
2024/04/16 02:43:01;;;;;;;14.40;2.05;;;;;;;7.42;nan;100159.63;5277153;27;20002;-93
2024/04/16 02:45:27;;;;;;;17.33;2.63;;;;;;;7.41;nan;100165.63;5275435;27;20013;-94
2024/04/16 02:47:53;;;;;;;13.93;2.15;;;;;;;7.47;nan;100170.50;5275093;27;20002;-92
2024/04/16 02:50:18;;;;;;;12.48;2.33;;;;;;;7.45;nan;100159.47;5275516;27;20334;-92
2024/04/16 02:52:43;;;;;;;10.38;1.70;;;;;;;7.41;nan;100160.50;5274654;27;20009;-92
2024/04/16 02:55:09;;;;;;;14.85;2.35;;;;;;;7.37;nan;100159.84;5275165;27;19998;-92
2024/04/16 02:57:34;;;;;;;10.63;2.20;;;;;;;7.29;nan;100172.19;5274997;27;20013;-94
2024/04/16 03:00:01;;;;;;;10.77;2.20;;;;;;;7.44;nan;100171.47;5275015;27;20006;-91
2024/04/16 03:02:26;;;;;;;8.10;1.92;;;;;;;7.32;nan;100166.09;5275182;27;20013;-92
2024/04/16 03:04:51;;;;;;;10.93;1.85;;;;;;;7.26;nan;100172.34;5276598;27;20441;-91
2024/04/16 03:07:17;;;;;;;15.57;2.30;;;;;;;7.35;nan;100178.78;5278245;27;20127;-94
2024/04/16 03:09:42;;;;;;;11.70;2.28;;;;;;;7.38;nan;100174.31;5278634;27;20006;-91
2024/04/16 03:12:07;;;;;;;8.45;1.48;;;;;;;7.37;nan;100179.56;5278551;27;19998;-91
2024/04/16 03:14:33;;;;;;;8.70;1.58;;;;;;;7.27;nan;100179.16;5279651;27;20021;-91
2024/04/16 03:16:59;;;;;;;8.68;1.42;;;;;;;7.32;nan;100184.91;5280412;27;20072;-92
2024/04/16 03:19:25;;;;;;;15.85;2.58;;;;;;;7.31;nan;100195.22;5278326;27;20006;-92
2024/04/16 03:21:50;;;;;;;7.93;1.45;;;;;;;7.39;nan;100191.41;5278637;27;20438;-93
2024/04/16 03:24:16;;;;;;;9.60;1.98;;;;;;;7.42;nan;100193.81;5278109;27;20001;-92
2024/04/16 03:26:42;;;;;;;5.03;1.65;;;;;;;7.49;nan;100194.38;5278119;27;19998;-91
2024/04/16 03:29:07;;;;;;;11.25;2.45;;;;;;;7.49;nan;100191.78;5277901;27;20077;-92
2024/04/16 03:31:32;;;;;;;13.50;2.15;;;;;;;7.50;nan;100190.88;5277769;27;20006;-92
2024/04/16 03:33:58;;;;;;;11.80;1.85;;;;;;;7.62;nan;100195.41;5278277;27;20325;-92
2024/04/16 03:36:23;;;;;;;7.32;1.73;;;;;;;7.51;nan;100192.56;5277939;27;20002;-92
2024/04/16 03:38:50;;;;;;;9.40;1.75;;;;;;;7.52;nan;100183.94;5277901;27;20436;-93
2024/04/16 03:41:15;;;;;;;8.02;1.23;;;;;;;7.58;nan;100186.19;5277836;27;20376;-92
2024/04/16 03:43:41;;;;;;;14.10;2.75;;;;;;;7.56;nan;100200.88;5280002;27;20010;-91
2024/04/16 03:46:06;;;;;;;7.15;1.60;;;;;;;7.56;nan;100194.88;5277981;27;20426;-91
2024/04/16 03:48:31;;;;;;;8.48;1.67;;;;;;;7.55;nan;100182.94;5277949;27;20010;-93
2024/04/16 03:50:57;;;;;;;10.05;1.42;;;;;;;7.57;nan;100192.25;5277657;27;20002;-92
2024/04/16 03:53:22;;;;;;;9.57;1.48;;;;;;;7.50;nan;100198.59;5278128;27;20002;-93
2024/04/16 03:55:47;;;;;;;13.75;1.77;;;;;;;7.45;nan;100193.66;5277909;27;20356;-92
2024/04/16 03:58:13;;;;;;;14.48;1.92;;;;;;;7.50;nan;100190.88;5279487;27;19999;-92
2024/04/16 04:03:23;;;;;;;12.10;2.13;;;;;;;7.51;nan;100202.81;5278932;27;20348;-92
2024/04/16 04:05:49;;;;;;;7.72;1.35;;;;;;;7.49;nan;100189.22;5279556;27;19998;-93
2024/04/16 04:08:14;;;;;;;9.13;1.38;;;;;;;7.52;nan;100199.34;5277521;27;20026;-93
2024/04/16 04:10:41;;;;;;;6.50;1.10;;;;;;;7.54;nan;100210.38;5277828;27;20072;-91
2024/04/16 04:13:07;;;;;;;13.18;1.55;;;;;;;7.61;nan;100213.47;5276943;27;19995;-92
2024/04/16 04:15:32;;;;;;;12.38;1.38;;;;;;;7.63;nan;100209.94;5277153;27;20042;-93
2024/04/16 04:17:58;;;;;;;6.45;1.35;;;;;;;7.64;nan;100211.59;5276078;27;20061;-91
2024/04/16 04:20:23;;;;;;;8.55;1.02;;;;;;;7.62;nan;100210.81;5277467;27;20453;-93
2024/04/16 04:22:48;;;;;;;13.63;2.15;;;;;;;7.59;nan;100210.97;5279160;27;20098;-91
2024/04/16 04:25:14;;;;;;;10.38;1.60;;;;;;;7.68;nan;100213.09;5277751;27;19998;-91
2024/04/16 04:27:41;;;;;;;9.68;1.90;;;;;;;7.71;nan;100215.53;5277171;27;20013;-94
2024/04/16 04:30:09;;;;;;;6.22;1.35;;;;;;;7.64;nan;100224.44;5277310;27;20008;-93
2024/04/16 04:32:35;;;;;;;14.23;2.67;;;;;;;7.71;nan;100223.22;5276981;27;20076;-92
2024/04/16 04:35:01;;;;;;;7.68;1.35;;;;;;;7.69;nan;100222.47;5277262;27;20404;-93
2024/04/16 04:37:27;;;;;;;8.95;1.65;;;;;;;7.63;nan;100207.38;5278749;27;20021;-93
2024/04/16 04:39:53;;;;;;;11.07;2.30;;;;;;;7.69;nan;100217.31;5278142;27;19998;-92
2024/04/16 04:42:18;;;;;;;5.53;1.30;;;;;;;7.70;nan;100208.69;5276927;27;20420;-92
2024/04/16 04:44:43;;;;;;;6.47;1.20;;;;;;;7.78;nan;100212.63;5277056;27;19994;-91
2024/04/16 04:47:09;;;;;;;9.45;1.65;;;;;;;7.74;nan;100213.72;5276966;27;20026;-91
2024/04/16 04:49:34;;;;;;;8.27;1.33;;;;;;;7.77;nan;100208.41;5276650;27;20005;-92
2024/04/16 04:52:00;;;;;;;8.00;1.50;;;;;;;7.68;nan;100210.53;5276628;27;20335;-92
2024/04/16 04:54:25;;;;;;;8.30;1.65;;;;;;;7.69;nan;100214.75;5276613;27;20002;-91
2024/04/16 04:56:51;;;;;;;14.48;2.58;;;;;;;7.59;nan;100205.84;5278477;27;19998;-92
2024/04/16 04:59:16;;;;;;;9.88;1.90;;;;;;;7.55;nan;100198.34;5276472;27;20002;-92
2024/04/16 05:01:41;;;;;;;10.75;1.65;;;;;;;7.42;nan;100204.09;5276413;27;20613;-92
2024/04/16 05:04:07;;;;;;;14.75;1.30;;;;;;;7.50;nan;100211.41;5276851;27;20037;-91
2024/04/16 05:06:33;;;;;;;11.13;1.83;;;;;;;7.43;nan;100198.03;5276638;27;19998;-93
2024/04/16 05:08:59;;;;;;;14.10;1.67;;;;;;;7.36;nan;100203.53;5276893;27;20002;-92
2024/04/16 05:11:25;;;;;;;5.57;1.73;;;;;;;7.43;nan;100200.59;5278354;27;20465;-93
2024/04/16 05:13:50;;;;;;;8.05;1.92;;;;;;;7.41;nan;100199.00;5278846;27;19998;-93
2024/04/16 05:16:15;;;;;;;10.15;1.27;;;;;;;7.29;nan;100201.28;5276301;27;19994;-91
2024/04/16 05:18:41;;;;;;;10.27;1.95;;;;;;;7.33;nan;100208.84;5276754;27;20346;-91
2024/04/16 05:21:06;;;;;;;8.63;1.40;;;;;;;7.35;nan;100212.16;5276391;27;20445;-92
2024/04/16 05:23:32;;;;;;;15.98;1.65;;;;;;;7.29;nan;100203.84;5278051;27;20006;-91
2024/04/16 05:26:02;;;;;;;16.23;2.58;;;;;;;7.37;nan;100205.22;5278599;27;19994;-94
2024/04/16 05:28:31;;;;;;;8.18;1.75;;;;;;;7.35;nan;100217.31;5274907;27;20355;-92
2024/04/16 05:30:57;;;;;;;8.57;2.17;;;;;;;7.31;nan;100223.47;5276373;27;19998;-92
2024/04/16 05:33:23;;;;;;;9.50;1.48;;;;;;;7.22;nan;100223.00;5277375;27;20008;-92
2024/04/16 05:35:48;;;;;;;19.60;3.35;;;;;;;7.24;nan;100222.94;5278726;27;20006;-91
2024/04/16 05:38:14;;;;;;;9.88;1.55;;;;;;;7.32;nan;100228.53;5277068;27;20050;-91
2024/04/16 05:40:39;;;;;;;9.77;1.50;;;;;;;7.29;nan;100237.22;5276465;27;20080;-91
2024/04/16 05:43:04;;;;;;;8.07;1.20;;;;;;;7.30;nan;100232.91;5276688;27;19994;-92
2024/04/16 05:45:30;;;;;;;10.90;1.50;;;;;;;7.40;nan;100236.72;5277343;27;19995;-91
2024/04/16 05:47:55;;;;;;;10.18;1.50;;;;;;;7.43;nan;100243.44;5276948;27;20388;-92
2024/04/16 05:50:20;;;;;;;10.40;2.72;;;;;;;7.50;nan;100245.63;5276837;27;19994;-92
2024/04/16 05:52:46;;;;;;;14.60;1.60;;;;;;;7.50;nan;100248.19;5276619;27;20345;-91
2024/04/16 05:55:11;;;;;;;9.63;2.42;;;;;;;7.58;nan;100260.66;5276374;27;20343;-91
2024/04/16 05:57:36;;;;;;;8.30;1.30;;;;;;;7.62;nan;100259.63;5276290;27;20013;-92
2024/04/16 06:00:02;;;;;;;10.18;1.48;;;;;;;7.70;nan;100264.38;5276558;27;19998;-92
2024/04/16 06:02:28;;;;;;;8.60;1.40;;;;;;;7.77;nan;100259.78;5278661;27;20006;-93
2024/04/16 06:04:53;;;;;;;9.00;1.63;;;;;;;7.85;nan;100275.66;5276553;27;19995;-93
2024/04/16 06:07:20;;;;;;;8.98;1.70;;;;;;;7.92;nan;100279.59;5275479;27;19998;-93
2024/04/16 06:09:45;;;;;;;10.02;2.05;;;;;;;7.97;nan;100282.75;5277550;27;20002;-93
2024/04/16 06:12:10;;;;;;;11.63;2.08;;;;;;;8.04;nan;100284.13;5276122;27;19999;-93
2024/04/16 06:14:36;;;;;;;11.57;1.33;;;;;;;8.12;nan;100289.75;5275884;27;20002;-93
2024/04/16 06:17:01;;;;;;;13.32;2.53;;;;;;;8.17;nan;100288.66;5258381;27;19999;-95
2024/04/16 06:19:26;;;;;;;7.95;1.48;;;;;;;8.15;nan;100294.72;5274952;27;20013;-92
2024/04/16 06:21:52;;;;;;;14.85;1.83;;;;;;;8.09;nan;100291.63;5276479;27;20001;-93
2024/04/16 06:24:17;;;;;;;12.48;1.80;;;;;;;8.03;nan;100297.06;5277826;27;20013;-92
2024/04/16 06:26:42;;;;;;;6.63;1.30;;;;;;;8.07;nan;100299.41;5277440;27;20436;-93
2024/04/16 06:29:08;;;;;;;10.23;1.73;;;;;;;8.14;nan;100292.22;5275494;27;20047;-91
2024/04/16 06:31:33;;;;;;;9.60;1.58;;;;;;;8.07;nan;100299.41;5275506;27;20013;-92
2024/04/16 06:33:59;;;;;;;9.73;2.05;;;;;;;8.21;nan;100305.59;5275911;27;19999;-91
2024/04/16 06:36:24;;;;;;;11.30;1.80;;;;;;;8.25;nan;100312.28;5275362;27;19999;-93
2024/04/16 06:38:49;;;;;;;9.32;1.75;;;;;;;8.29;nan;100324.03;5276096;27;19982;-91
2024/04/16 06:41:15;;;;;;;13.68;2.38;;;;;;;8.37;nan;100314.22;5282790;27;19994;-90
2024/04/16 06:43:40;;;;;;;4.90;1.20;;;;;;;8.33;nan;100335.84;5283984;27;20439;-92
2024/04/16 06:46:05;;;;;;;8.43;1.40;;;;;;;8.32;nan;100324.75;5282412;27;20430;-94
2024/04/16 06:48:31;;;;;;;17.60;1.90;;;;;;;8.49;nan;100339.34;5283057;27;20418;-92
2024/04/16 06:50:57;;;;;;;8.23;1.63;;;;;;;8.53;nan;100340.88;5309714;27;20002;-92
2024/04/16 06:53:22;;;;;;;15.75;4.47;;;;;;;8.64;nan;100336.94;5282852;27;20013;-91
2024/04/16 06:56:08;;;;;;;20.83;2.22;;;;;;;8.33;nan;100346.13;5282990;27;20017;-94
2024/04/16 06:58:33;;;;;;;11.35;2.00;;;;;;;8.24;nan;100331.16;5281986;27;20026;-91
2024/04/16 07:01:00;;;;;;;14.18;2.00;;;;;;;8.51;nan;100339.25;5309681;27;20002;-94
2024/04/16 07:03:25;;;;;;;15.90;1.52;;;;;;;9.47;nan;100346.25;5314928;27;20009;-94
2024/04/16 07:05:51;;;;;;;11.63;1.95;;;;;;;9.50;nan;100355.56;5281856;27;20106;-94
2024/04/16 07:08:18;;;;;;;17.10;2.88;;;;;;;9.56;nan;100352.66;5282810;27;20009;-92
2024/04/16 07:10:45;;;;;;;11.48;2.13;;;;;;;9.44;nan;100367.03;5284469;27;20072;-92
2024/04/16 07:13:10;;;;;;;8.00;1.42;;;;;;;10.75;nan;100344.19;5282668;27;20017;-93
2024/04/16 07:15:36;;;;;;;10.55;1.60;;;;;;;12.10;nan;100352.16;5282684;27;20372;-94
2024/04/16 07:18:02;;;;;;;8.90;2.05;;;;;;;12.13;nan;100353.72;5282675;27;20163;-93
2024/04/16 07:20:27;;;;;;;10.05;1.58;;;;;;;12.75;nan;100366.00;5283868;27;20009;-95
2024/04/16 07:22:53;;;;;;;10.57;2.33;;;;;;;11.81;nan;100359.19;5285433;27;20020;-96
2024/04/16 07:25:18;;;;;;;13.95;2.60;;;;;;;11.90;nan;100383.63;5285815;27;20457;-95
2024/04/16 07:27:44;;;;;;;11.95;1.63;;;;;;;11.08;nan;100378.31;5284581;27;20456;-94
2024/04/16 07:30:09;;;;;;;9.15;1.50;;;;;;;10.79;nan;100374.91;5286408;27;20437;-96
2024/04/16 07:32:35;;;;;;;13.45;2.22;;;;;;;11.62;nan;100363.84;5285249;27;20015;-94
2024/04/16 07:35:00;;;;;;;15.00;2.63;;;;;;;11.77;nan;100365.47;5284577;27;20046;-94
2024/04/16 07:37:25;;;;;;;21.40;4.20;;;;;;;12.73;nan;100367.84;5285407;27;20006;-94
2024/04/16 07:39:51;;;;;;;12.57;2.20;;;;;;;12.88;nan;100372.00;5283043;27;20293;-95
2024/04/16 07:42:16;;;;;;;13.65;2.53;;;;;;;12.52;nan;100372.72;5284651;27;20002;-95
2024/04/16 07:44:42;;;;;;;8.75;1.67;;;;;;;12.46;nan;100373.13;5282357;27;20085;-96
2024/04/16 07:47:07;;;;;;;11.27;2.05;;;;;;;12.06;nan;100362.81;5282710;27;20280;-94
2024/04/16 07:49:32;;;;;;;15.60;2.28;;;;;;;12.65;nan;100381.31;5282542;27;20578;-94
2024/04/16 07:51:58;;;;;;;11.38;2.20;;;;;;;13.21;nan;100378.38;5277329;27;20014;-94
2024/04/16 07:54:23;;;;;;;11.60;1.60;;;;;;;14.09;nan;100376.47;5277072;27;20029;-94
2024/04/16 07:56:50;;;;;;;6.28;1.23;;;;;;;14.61;nan;100363.16;5277464;27;20002;-95
2024/04/16 07:59:17;;;;;;;10.90;1.75;;;;;;;13.18;nan;100374.25;5278804;27;20088;-96
2024/04/16 08:01:42;;;;;;;12.25;1.67;;;;;;;13.57;nan;100376.78;5278953;27;20009;-94
2024/04/16 08:04:08;;;;;;;9.77;1.85;;;;;;;14.19;nan;100371.41;5277264;27;19998;-93
2024/04/16 08:06:33;;;;;;;14.32;2.17;;;;;;;14.71;nan;100367.53;5282776;27;20002;-93
2024/04/16 08:08:58;;;;;;;14.40;2.85;;;;;;;14.54;nan;100375.78;5273727;27;20006;-92
2024/04/16 08:11:24;;;;;;;11.40;2.80;;;;;;;15.20;nan;100386.34;5276656;27;20006;-92
2024/04/16 08:13:50;;;;;;;9.00;2.22;;;;;;;14.47;nan;100390.13;5277809;27;19998;-94
2024/04/16 08:16:16;;;;;;;9.85;1.75;;;;;;;14.88;nan;100396.63;5278539;27;20006;-93
2024/04/16 08:18:41;;;;;;;10.85;1.83;;;;;;;14.61;nan;100404.72;5284712;27;20006;-96
2024/04/16 08:21:07;;;;;;;6.05;1.60;;;;;;;15.91;nan;100393.81;5281149;27;20010;-95
2024/04/16 08:23:32;;;;;;;7.25;1.73;;;;;;;16.03;nan;100398.84;5263409;27;20007;-94
2024/04/16 08:26:03;;;;;;;6.72;1.58;;;;;;;15.08;nan;100388.13;5267254;27;20017;-94
2024/04/16 08:28:30;;;;;;;13.60;1.60;;;;;;;14.81;nan;100391.06;5271590;27;20061;-93
2024/04/16 08:30:56;;;;;;;8.45;1.58;;;;;;;16.60;nan;100388.94;5274796;27;20046;-94
2024/04/16 08:33:22;;;;;;;7.20;1.48;;;;;;;16.49;nan;100389.03;5274996;27;19999;-93
2024/04/16 08:35:52;;;;;;;8.05;1.45;;;;;;;16.85;nan;100384.31;5274499;27;20029;-94
2024/04/16 08:38:18;;;;;;;8.80;1.75;;;;;;;16.89;nan;100390.94;5273713;27;20018;-93
2024/04/16 08:40:45;;;;;;;7.78;2.13;;;;;;;15.88;nan;100394.06;5274406;27;19999;-93
2024/04/16 08:43:10;;;;;;;10.18;1.67;;;;;;;16.77;nan;100384.13;5274419;27;20003;-93
2024/04/16 08:45:36;;;;;;;10.18;1.67;;;;;;;16.90;nan;100376.94;5274307;27;20021;-92
2024/04/16 08:48:04;;;;;;;6.30;1.50;;;;;;;17.55;nan;100378.22;5273909;27;20437;-93
2024/04/16 08:50:30;;;;;;;6.10;1.55;;;;;;;17.79;nan;100384.88;5276586;27;20046;-94
2024/04/16 08:52:58;;;;;;;6.05;1.33;;;;;;;17.75;nan;100379.09;5278266;27;20005;-95
2024/04/16 08:55:26;;;;;;;8.70;1.88;;;;;;;17.50;nan;100375.19;5279727;27;20050;-94
2024/04/16 08:57:52;;;;;;;9.18;1.17;;;;;;;16.40;nan;100379.38;5248092;27;20031;-94
2024/04/16 09:00:19;;;;;;;7.05;1.67;;;;;;;17.39;nan;100385.78;5270369;27;19994;-95
2024/04/16 09:02:45;;;;;;;7.80;1.67;;;;;;;17.26;nan;100395.59;5272352;27;19999;-92
2024/04/16 09:05:14;;;;;;;6.63;1.58;;;;;;;17.13;nan;100392.41;5272461;27;20042;-96
2024/04/16 09:07:40;;;;;;;8.25;2.00;;;;;;;18.38;nan;100402.19;5268782;27;20389;-93
2024/04/16 09:10:24;;;;;;;11.70;1.60;;;;;;;18.89;nan;100384.50;5271113;27;20006;-93
2024/04/16 09:12:50;;;;;;;5.25;1.23;;;;;;;17.44;nan;100398.41;5270632;27;20010;-92
2024/04/16 09:15:17;;;;;;;7.50;0.98;;;;;;;17.55;nan;100399.09;5275146;27;19998;-92
2024/04/16 09:17:54;;;;;;;6.05;1.50;;;;;;;16.97;nan;100401.56;5275322;27;20002;-93
2024/04/16 09:20:20;;;;;;;9.93;1.80;;;;;;;17.26;nan;100395.59;5274531;27;20009;-93
2024/04/16 09:22:48;;;;;;;5.57;1.30;;;;;;;17.53;nan;100408.88;5274230;27;20006;-92
2024/04/16 09:25:14;;;;;;;10.35;1.30;;;;;;;16.72;nan;100404.53;5274830;27;19998;-94
2024/04/16 09:27:39;;;;;;;8.52;2.10;;;;;;;16.24;nan;100406.69;5274786;27;19998;-94
2024/04/16 09:30:11;;;;;;;7.47;1.55;;;;;;;15.39;nan;100419.56;5274915;27;20350;-96
2024/04/16 09:32:37;;;;;;;;;;;;;;;15.21;nan;100424.38;5275433;27;20364;-94
2024/04/16 09:35:03;;;;;;;5.95;1.75;;;;;;;15.93;nan;100423.13;5274093;27;19934;-94
2024/04/16 09:37:28;;;;;;;6.35;1.50;;;;;;;15.31;nan;100427.91;5274353;27;20014;-94
2024/04/16 09:39:54;;;;;;;6.30;1.20;;;;;;;16.71;nan;100428.94;5263968;27;20077;-94
2024/04/16 09:42:21;;;;;;;10.90;1.58;;;;;;;15.99;nan;100427.84;5274419;27;20002;-93
2024/04/16 09:44:48;;;;;;;9.38;1.65;;;;;;;16.73;nan;100419.19;5275873;27;20006;-91
2024/04/16 09:47:17;;;;;;;7.70;1.23;;;;;;;17.50;nan;100422.16;5272285;27;20002;-91
2024/04/16 09:49:43;;;;;;;9.05;1.48;;;;;;;16.80;nan;100420.38;5269147;27;20006;-90
2024/04/16 09:52:10;;;;;;;6.85;1.55;;;;;;;16.66;nan;100427.53;5270448;27;20001;-90
2024/04/16 09:54:36;;;;;;;6.72;1.60;;;;;;;16.60;nan;100420.22;5248084;27;19995;-91
2024/04/16 09:57:04;;;;;;;7.80;1.20;;;;;;;16.98;nan;100418.84;5278715;26;20010;-92
2024/04/16 09:59:30;;;;;;;6.40;1.00;;;;;;;17.46;nan;100417.34;5275981;27;20036;-95
2024/04/16 10:01:57;;;;;;;10.60;1.50;;;;;;;17.67;nan;100425.94;5277633;27;20012;-91
2024/04/16 10:04:23;;;;;;;5.60;1.10;;;;;;;17.73;nan;100420.19;5277929;26;19998;-93
2024/04/16 10:06:49;;;;;;;7.55;1.38;;;;;;;17.47;nan;100417.22;5276614;27;20470;-91
2024/04/16 10:09:17;;;;;;;6.93;1.40;;;;;;;17.03;nan;100421.88;5277127;27;19998;-92
2024/04/16 10:11:47;;;;;;;5.47;1.15;;;;;;;17.98;nan;100417.22;5274348;27;20010;-92
2024/04/16 10:14:13;;;;;;;6.05;1.27;;;;;;;18.40;nan;100420.38;5275825;27;20010;-91
2024/04/16 10:16:40;;;;;;;4.97;0.95;;;;;;;18.61;nan;100412.38;5275463;27;20454;-90
2024/04/16 10:19:06;;;;;;;7.25;1.33;;;;;;;17.34;nan;100421.88;5270260;27;20392;-92
2024/04/16 10:21:38;;;;;;;6.63;1.63;;;;;;;17.39;nan;100419.69;5261586;27;20010;-91
2024/04/16 10:24:09;;;;;;;7.88;1.60;;;;;;;17.84;nan;100426.25;5271832;27;20003;-90
2024/04/16 10:26:36;;;;;;;12.18;2.20;;;;;;;17.85;nan;100420.91;5271656;27;20017;-91
2024/04/16 10:29:02;;;;;;;7.82;1.20;;;;;;;17.35;nan;100428.72;5274695;27;20003;-93
2024/04/16 10:31:30;;;;;;;6.70;1.50;;;;;;;16.33;nan;100420.72;5273540;27;20009;-92
2024/04/16 10:34:01;;;;;;;5.78;1.20;;;;;;;16.04;nan;100420.47;5275237;27;20013;-93
2024/04/16 10:36:27;;;;;;;;;;;;;;;16.19;nan;100429.69;5273140;27;20002;-93
2024/04/16 10:38:52;;;;;;;6.40;1.73;;;;;;;15.99;nan;100430.44;5272921;27;19997;-91
2024/04/16 10:41:25;;;;;;;7.00;1.77;;;;;;;16.01;nan;100433.75;5275576;27;20325;-95
2024/04/16 10:43:52;;;;;;;4.82;1.20;;;;;;;15.93;nan;100438.75;5270303;27;19999;-91
2024/04/16 10:46:19;;;;;;;4.60;1.20;;;;;;;15.45;nan;100439.03;5255052;27;20030;-93
2024/04/16 10:48:45;;;;;;;7.90;1.50;;;;;;;15.48;nan;100429.22;5272817;27;20007;-94
2024/04/16 10:51:12;;;;;;;4.53;1.00;;;;;;;15.31;nan;100429.69;5272852;27;20498;-92
2024/04/16 10:53:38;;;;;;;6.13;1.10;;;;;;;14.98;nan;100433.97;5272297;27;20002;-92
2024/04/16 10:56:04;;;;;;;4.90;1.50;;;;;;;15.83;nan;100430.84;5275793;27;20009;-91
2024/04/16 10:58:29;;;;;;;7.93;1.25;;;;;;;16.95;nan;100424.31;5276743;27;20360;-92
2024/04/16 11:00:55;;;;;;;6.20;1.52;;;;;;;16.93;nan;100421.00;5271124;27;20006;-90
2024/04/16 11:03:21;;;;;;;7.72;0.80;;;;;;;17.57;nan;100422.47;5242634;27;19999;-91
2024/04/16 11:05:47;;;;;;;3.53;0.90;;;;;;;17.89;nan;100421.47;5283223;27;19998;-92
2024/04/16 11:08:13;;;;;;;5.00;1.15;;;;;;;17.84;nan;100424.47;5311853;26;20037;-94
2024/04/16 11:10:42;;;;;;;3.25;0.80;;;;;;;18.23;nan;100427.09;5286497;27;20523;-93
2024/04/16 11:13:08;;;;;;;6.00;0.95;;;;;;;18.65;nan;100426.78;5276657;27;20022;-93
2024/04/16 11:15:34;;;;;;;3.60;0.70;;;;;;;17.36;nan;100430.38;5274867;27;20352;-94
2024/04/16 11:18:03;;;;;;;7.00;1.25;;;;;;;17.17;nan;100433.75;5274480;27;20002;-94
2024/04/16 11:20:29;;;;;;;5.47;1.17;;;;;;;18.14;nan;100422.69;5275853;27;19999;-93
2024/04/16 11:22:57;;;;;;;4.88;0.98;;;;;;;18.08;nan;100423.28;5276309;27;20478;-94
2024/04/16 11:25:23;;;;;;;9.75;1.00;;;;;;;18.70;nan;100436.81;5276009;27;20002;-93
2024/04/16 11:27:48;;;;;;;4.65;1.00;;;;;;;19.00;nan;100425.38;5280121;27;20009;-95
2024/04/16 11:30:13;;;;;;;4.45;0.85;;;;;;;19.07;nan;100434.28;5278389;27;19999;-93
2024/04/16 11:32:40;;;;;;;4.65;0.90;;;;;;;17.98;nan;100441.53;5278582;27;20297;-94
2024/04/16 11:35:10;;;;;;;4.35;0.70;;;;;;;16.65;nan;100433.72;5274312;27;20102;-95
2024/04/16 11:37:40;;;;;;;4.38;0.63;;;;;;;16.88;nan;100431.81;5278045;27;19998;-93
2024/04/16 11:40:06;;;;;;;3.78;0.60;;;;;;;15.98;nan;100436.63;5275121;27;20038;-94